WetterOnline ( https://www.wetteronline.de )

Wetter aktuell Leutkirch

Aktuelles Wetter: Leutkirch-Herlazhofen (671m)

6-stündlich | Neueste Meldungen
Ortszeit Temperatur Wetter
Do, 17.10. 2:00 4.5° C wolkig
Mi, 16.10. 20:00 6.5° C wolkenlos
Mi, 16.10. 14:00 13.3° C wolkenlos
Mi, 16.10. 8:00 6.2° C fast wolkenlos
Mi, 16.10. 2:00 8.3° C leichter Regen
Di, 15.10. 20:00 11.3° C Sprühregen
Di, 15.10. 14:00 16.1° C bedeckt
Di, 15.10. 8:00 4.3° C wolkenlos
Ortszeit Temperatur Wetter
Do, 17.10. 6:30 3.7° C bedeckt
Do, 17.10. 6:20 3.7° C bedeckt
Do, 17.10. 6:10 3.3° C bewölkt
Do, 17.10. 6:00 3.4° C wolkig
Do, 17.10. 5:50 3.4° C wolkig
Do, 17.10. 5:40 3.7° C leicht bewölkt
Do, 17.10. 5:30 3.4° C fast wolkenlos
Do, 17.10. 5:00 2.6° C leicht bewölkt
Do, 17.10. 4:30 3.0° C wolkig
Do, 17.10. 4:00 3.9° C leicht bewölkt
Do, 17.10. 3:30 4.2° C leicht bewölkt
Ortszeit Relative Feuchte Sichtweite
Do, 17.10. 2:00 87% 60 km
Mi, 16.10. 20:00 91% 40 km
Mi, 16.10. 14:00 49% >70 km
Mi, 16.10. 8:00 93% 55 km
Mi, 16.10. 2:00 91% 27 km
Di, 15.10. 20:00 94% 20 km
Di, 15.10. 14:00 66% 40 km
Di, 15.10. 8:00 95% 35 km
Ortszeit Relative Feuchte Sichtweite
Do, 17.10. 6:30 93% 55 km
Do, 17.10. 6:20 93% -
Do, 17.10. 6:10 93% -
Do, 17.10. 6:00 91% 60 km
Do, 17.10. 5:50 91% -
Do, 17.10. 5:40 91% -
Do, 17.10. 5:30 92% 60 km
Do, 17.10. 5:00 93% 50 km
Do, 17.10. 4:30 92% 45 km
Do, 17.10. 4:00 89% 65 km
Do, 17.10. 3:30 90% 65 km
Ortszeit Niederschlagsmenge Niederschlagsart
Do, 17.10. 2:00 0.0 l/m2 in 6 Std. -
Mi, 16.10. 20:00 0.0 l/m2 in 12 Std. -
Mi, 16.10. 14:00 0.0 l/m2 in 6 Std. -
Mi, 16.10. 8:00 5 l/m2 in 12 Std. Regen
Mi, 16.10. 2:00 5 l/m2 in 6 Std. Regen
Di, 15.10. 20:00 1 l/m2 in 12 Std. Regen
Di, 15.10. 14:00 0.0 l/m2 in 6 Std. -
Di, 15.10. 8:00 0.0 l/m2 in 12 Std. -
Ortszeit Niederschlagsmenge Niederschlagsart
Do, 17.10. 6:30 0.0 l/m2 in 1 Std. -
Do, 17.10. 6:20 keine Meldung -
Do, 17.10. 6:10 keine Meldung -
Do, 17.10. 6:00 0.0 l/m2 in 1 Std. -
Do, 17.10. 5:50 keine Meldung -
Do, 17.10. 5:40 keine Meldung -
Do, 17.10. 5:30 0.0 l/m2 in 1 Std. -
Do, 17.10. 5:00 0.0 l/m2 in 1 Std. -
Do, 17.10. 4:30 0.0 l/m2 in 1 Std. -
Do, 17.10. 4:00 0.0 l/m2 in 1 Std. -
Do, 17.10. 3:30 0.0 l/m2 in 1 Std. -
Ortszeit Stärke Spitze Richtung
km/h Bft. km/h Grad Sektor
Do, 17.10. 2:00 4 1 18 190° S
Mi, 16.10. 20:00 4 1 25 120° SO
Mi, 16.10. 14:00 17 3 30 230° SW
Mi, 16.10. 8:00 9 2 35 190° S
Mi, 16.10. 2:00 24 4 48 220° SW
Di, 15.10. 20:00 14 3 32 230° SW
Di, 15.10. 14:00 26 4 41 220° SW
Di, 15.10. 8:00 0 0 11 - -
Ortszeit Stärke Spitze Richtung
km/h Bft. km/h Grad Sektor
Do, 17.10. 6:30 4 1 7 140° SO
Do, 17.10. 6:20 4 1 - 140° SO
Do, 17.10. 6:10 4 1 - 130° SO
Do, 17.10. 6:00 4 1 7 190° S
Do, 17.10. 5:50 4 1 - 190° S
Do, 17.10. 5:40 6 1 - 220° SW
Do, 17.10. 5:30 4 1 7 170° S
Do, 17.10. 5:00 4 1 7 150° SO
Do, 17.10. 4:30 6 1 7 160° S
Do, 17.10. 4:00 4 1 7 170° S
Do, 17.10. 3:30 4 1 7 190° S
Ortszeit Untergrenze Bedeckung Gattung
total tief tief mittel hoch
Do, 17.10. 2:00 8100 m 7/8 0/8 - - -
Mi, 16.10. 20:00 - 0/8 0/8 - - -
Mi, 16.10. 14:00 - 0/8 0/8 - - -
Mi, 16.10. 8:00 1020 m 1/8 1/8 - - -
Mi, 16.10. 2:00 390 m 8/8 8/8 - - -
Di, 15.10. 20:00 180 m 7/8 7/8 - - -
Di, 15.10. 14:00 5400 m 8/8 8/8 - - -
Di, 15.10. 8:00 - 0/8 0/8 - - -
Ortszeit Bedeckungsgrad in Achtel und Wolkenuntergrenze
Do, 17.10. 6:30 7(4500m) 8(5100m)
Do, 17.10. 6:20 7(4500m) 8(5100m)
Do, 17.10. 6:10 7(4500m) 7(5100m) 8(8400m)
Do, 17.10. 6:00 3(4800m) 6(7200m) 7(8400m)
Do, 17.10. 5:50 3(4800m) 6(7200m) 7(8400m)
Do, 17.10. 5:40 5(7200m) 5(7800m)
Do, 17.10. 5:30 2(8700m)
Do, 17.10. 5:00 3(8700m)
Do, 17.10. 4:30 2(6300m) 7(8100m)
Do, 17.10. 4:00 3(6600m) 4(7800m) 5(8700m)
Do, 17.10. 3:30 3(7200m) 5(7800m) 6(9000m)
Ortszeit Luftdruck NN (hPa) Tendenz (hPa in 3 Std.)
Do, 17.10. 2:00 1018 - 0,1
Mi, 16.10. 20:00 1017 0,0
Mi, 16.10. 14:00 1017 - 1,0
Mi, 16.10. 8:00 1019 + 0,7
Mi, 16.10. 2:00 1017 + 1,4
Di, 15.10. 20:00 1011 + 2,4
Di, 15.10. 14:00 1006 - 0,1
Di, 15.10. 8:00 1011 - 1,7
Ortszeit Luftdruck NN (hPa) Tendenz (hPa in 3 Std.)
Do, 17.10. 6:30 1019 + 0,3
Do, 17.10. 6:20 1019 keine Meldung
Do, 17.10. 6:10 1020 keine Meldung
Do, 17.10. 6:00 1019 + 0,3
Do, 17.10. 5:50 1019 keine Meldung
Do, 17.10. 5:40 1019 keine Meldung
Do, 17.10. 5:30 1019 + 0,3
Do, 17.10. 5:00 1020 + 0,4
Do, 17.10. 4:30 1019 + 0,2
Do, 17.10. 4:00 1019 + 0,2
Do, 17.10. 3:30 1019 + 0,1
Ortszeit Schneehöhe (cm)
Do, 17.10. 2:00 0
Mi, 16.10. 20:00 0
Mi, 16.10. 14:00 0
Mi, 16.10. 8:00 0
Mi, 16.10. 2:00 0
Di, 15.10. 20:00 0
Di, 15.10. 14:00 0
Di, 15.10. 8:00 0
Ortszeit Schneehöhe (cm)
Do, 17.10. 6:30 0
Do, 17.10. 6:20 0
Do, 17.10. 6:10 0
Do, 17.10. 6:00 0
Do, 17.10. 5:50 0
Do, 17.10. 5:40 0
Do, 17.10. 5:30 0
Do, 17.10. 5:00 0
Do, 17.10. 4:30 0
Do, 17.10. 4:00 0
Do, 17.10. 3:30 0
Link zu dieser Seite / Seite empfehlen

Das Wetter in ...